Time;durP1;ratioP1;P1;durP2;ratioP2;P2;SDS_P1;SDS_P2;PMS_P1;PMS_P2;Temp;Humidity;BMP_temperature;BMP_pressure;BME280_temperature;BME280_humidity;BME280_pressure;Samples;Min_cycle;Max_cycle;Signal;HPM_P1;HPM_P2
2021/11/08 00:00:45;;;;;;;48.47;29.30;;;;;;;13.20;94.11;95071.72;5142426;27;20443;-82
2021/11/08 00:03:16;;;;;;;33.60;22.70;;;;;;;13.20;93.89;95083.09;5140849;27;20439;-83
2021/11/08 00:05:44;;;;;;;41.63;23.57;;;;;;;13.17;93.84;95070.19;5139175;27;20489;-83
2021/11/08 00:08:12;;;;;;;49.33;23.73;;;;;;;13.24;93.82;95086.28;5138954;27;20964;-84
2021/11/08 00:10:41;;;;;;;38.03;23.73;;;;;;;13.24;93.95;95081.00;5139860;27;20443;-82
2021/11/08 00:13:10;;;;;;;43.63;24.53;;;;;;;13.23;93.83;95084.59;5139889;27;20432;-83
2021/11/08 00:15:45;;;;;;;34.40;22.90;;;;;;;13.24;93.71;95083.63;5140771;27;20438;-83
2021/11/08 00:18:19;;;;;;;37.33;20.83;;;;;;;13.18;93.71;95074.50;5141334;27;20482;-84
2021/11/08 00:20:47;;;;;;;33.30;20.97;;;;;;;13.19;92.97;95077.97;5141333;27;20434;-83
2021/11/08 00:23:15;;;;;;;31.83;21.57;;;;;;;13.16;92.91;95068.50;5139638;27;20449;-84
2021/11/08 00:25:43;;;;;;;32.50;21.20;;;;;;;13.09;92.43;95056.06;5140535;27;20478;-82
2021/11/08 00:28:11;;;;;;;41.87;21.63;;;;;;;13.03;93.67;95057.44;5140124;27;20502;-82
2021/11/08 00:30:39;;;;;;;31.77;20.50;;;;;;;13.09;93.53;95072.69;5139653;27;20850;-83
2021/11/08 00:33:08;;;;;;;37.80;22.90;;;;;;;13.01;93.47;95054.97;5139565;27;20448;-83
2021/11/08 00:35:37;;;;;;;35.30;20.57;;;;;;;13.01;93.25;95059.41;5138371;27;20441;-83
2021/11/08 00:38:05;;;;;;;39.67;22.13;;;;;;;12.91;93.93;95056.75;5137875;27;20510;-83
2021/11/08 00:40:32;;;;;;;38.83;21.70;;;;;;;12.93;94.04;95059.25;5138575;27;20438;-82
2021/11/08 00:42:59;;;;;;;38.53;20.93;;;;;;;12.94;94.56;95043.28;5139017;27;20478;-82
2021/11/08 00:45:27;;;;;;;36.40;19.80;;;;;;;12.94;94.12;95045.94;5138462;27;20506;-83
2021/11/08 00:47:55;;;;;;;31.43;19.47;;;;;;;12.97;93.70;95047.44;5137708;27;20444;-83
2021/11/08 00:50:22;;;;;;;29.27;19.90;;;;;;;12.99;93.67;95048.13;5137091;27;20439;-83
2021/11/08 00:52:51;;;;;;;30.90;18.67;;;;;;;13.01;93.56;95044.41;5137303;27;20445;-83
2021/11/08 00:55:19;;;;;;;24.23;16.17;;;;;;;13.02;93.99;95037.34;5138382;27;20877;-84
2021/11/08 00:57:48;;;;;;;29.17;18.70;;;;;;;13.03;93.31;95026.66;5136860;27;20433;-83
2021/11/08 01:00:18;;;;;;;31.77;20.73;;;;;;;13.01;93.22;95023.34;5137138;27;20538;-83
2021/11/08 01:02:46;;;;;;;29.03;18.63;;;;;;;12.99;93.57;95025.25;5136509;27;20434;-83
2021/11/08 01:05:16;;;;;;;26.70;18.70;;;;;;;13.00;93.40;95019.03;5136520;27;20488;-83
2021/11/08 01:07:43;;;;;;;28.67;18.70;;;;;;;12.99;93.19;95013.91;5136490;27;20457;-81
2021/11/08 01:10:15;;;;;;;35.90;18.77;;;;;;;12.99;93.55;95013.91;5136749;27;20529;-83
2021/11/08 01:12:42;;;;;;;26.10;17.37;;;;;;;12.95;94.17;95016.00;5136832;27;20451;-83
2021/11/08 01:15:10;;;;;;;25.40;17.63;;;;;;;12.97;93.95;95021.94;5136769;27;20435;-84
2021/11/08 01:17:38;;;;;;;31.30;19.30;;;;;;;12.88;94.45;95014.91;5083626;27;20450;-83
2021/11/08 01:20:07;;;;;;;22.27;16.50;;;;;;;12.93;95.00;95017.09;5136105;27;20525;-82
2021/11/08 01:22:35;;;;;;;25.70;18.40;;;;;;;12.84;95.75;95013.53;5136300;27;20485;-83
2021/11/08 01:25:03;;;;;;;24.40;16.50;;;;;;;12.78;96.68;95011.44;5135902;27;20473;-83
2021/11/08 01:27:36;;;;;;;24.47;17.23;;;;;;;12.81;97.22;95019.06;5135913;27;20474;-83
2021/11/08 01:30:09;;;;;;;29.70;18.60;;;;;;;12.74;97.85;95011.88;5135854;27;20612;-84
2021/11/08 01:32:36;;;;;;;35.00;18.77;;;;;;;12.77;97.90;95011.59;5136143;27;20478;-83
2021/11/08 01:35:04;;;;;;;31.07;19.00;;;;;;;12.75;97.17;94993.31;5136469;27;20507;-83
2021/11/08 01:37:31;;;;;;;29.07;20.40;;;;;;;12.73;96.88;94992.63;5135790;27;20985;-83
2021/11/08 01:39:58;;;;;;;27.03;18.90;;;;;;;12.75;96.70;95000.38;5136404;27;20837;-83
2021/11/08 01:42:26;;;;;;;27.33;18.40;;;;;;;12.78;95.28;94993.03;5135610;27;20891;-83
2021/11/08 01:44:54;;;;;;;30.20;19.03;;;;;;;12.68;95.46;94998.28;5136023;27;20490;-83
2021/11/08 01:47:21;;;;;;;29.63;18.97;;;;;;;12.71;95.49;94989.25;5083538;27;20804;-83
2021/11/08 01:49:49;;;;;;;32.87;20.33;;;;;;;12.68;96.33;94981.66;5136034;27;20453;-83
2021/11/08 01:52:16;;;;;;;25.20;17.27;;;;;;;12.79;96.65;94983.31;5135714;27;20487;-83
2021/11/08 01:54:42;;;;;;;29.77;18.53;;;;;;;12.83;96.15;94985.53;5135511;27;20534;-83
2021/11/08 01:57:10;;;;;;;29.40;19.27;;;;;;;12.83;96.49;94977.63;5134972;27;20434;-83
2021/11/08 01:59:37;;;;;;;24.13;16.87;;;;;;;12.88;97.32;94970.13;5135591;27;20443;-83
2021/11/08 02:02:06;;;;;;;29.30;16.30;;;;;;;12.90;96.80;94973.44;5135475;27;20531;-82
2021/11/08 02:04:33;;;;;;;29.33;17.93;;;;;;;12.94;96.29;94974.81;5135838;27;20457;-83
2021/11/08 02:07:01;;;;;;;24.83;16.07;;;;;;;12.93;96.35;94961.78;5136923;27;20445;-83
2021/11/08 02:09:28;;;;;;;24.20;16.90;;;;;;;12.95;96.32;94960.66;5082850;28;20444;-84
2021/11/08 02:11:56;;;;;;;29.43;17.80;;;;;;;12.96;96.03;94972.88;5135482;27;20804;-84
2021/11/08 02:14:23;;;;;;;31.07;16.57;;;;;;;12.96;96.06;94966.78;5135453;27;20470;-83
2021/11/08 02:16:50;;;;;;;24.13;15.87;;;;;;;13.01;95.90;94968.03;5134609;27;20435;-84
2021/11/08 02:19:19;;;;;;;24.43;15.70;;;;;;;13.01;95.68;94975.09;5135174;27;20439;-83
2021/11/08 02:21:47;;;;;;;27.83;17.80;;;;;;;12.85;95.89;94973.03;5134568;27;20485;-84
2021/11/08 02:24:17;;;;;;;35.83;21.53;;;;;;;12.63;95.88;94961.03;5134912;28;20440;-84
2021/11/08 02:26:46;;;;;;;35.23;23.43;;;;;;;12.50;95.67;94962.28;5134952;28;20482;-83
2021/11/08 02:29:14;;;;;;;38.00;22.90;;;;;;;12.46;95.13;94964.38;5135258;28;20450;-83
2021/11/08 02:31:41;;;;;;;34.43;22.20;;;;;;;12.45;94.40;94967.97;5135442;28;20459;-83
2021/11/08 02:34:08;;;;;;;43.67;24.07;;;;;;;12.46;93.96;94974.06;5135169;28;20489;-83
2021/11/08 02:36:41;;;;;;;35.00;24.03;;;;;;;12.48;94.34;94980.03;5135716;28;20835;-83
2021/11/08 02:39:13;;;;;;;36.53;23.77;;;;;;;12.34;94.95;94968.94;5134743;28;20822;-84
2021/11/08 02:41:40;;;;;;;41.03;24.97;;;;;;;12.31;95.51;94976.28;5135035;28;20449;-84
2021/11/08 02:44:07;;;;;;;33.07;21.27;;;;;;;12.33;96.04;94972.53;5134215;28;21007;-84
2021/11/08 02:46:38;;;;;;;35.43;22.07;;;;;;;12.36;95.52;94972.25;5134112;28;20995;-83
2021/11/08 02:49:07;;;;;;;37.57;24.30;;;;;;;12.35;94.85;94957.44;5133852;28;20822;-84
2021/11/08 02:51:34;;;;;;;33.60;21.60;;;;;;;12.33;94.84;94958.56;5134093;28;20454;-84
2021/11/08 02:54:05;;;;;;;41.87;22.33;;;;;;;12.33;94.29;94959.38;5134431;28;20884;-84
2021/11/08 02:56:33;;;;;;;35.50;21.60;;;;;;;12.34;94.29;94957.56;5134574;28;20885;-83
2021/11/08 02:59:01;;;;;;;36.43;22.33;;;;;;;12.31;95.09;94949.97;5138609;28;20930;-84
2021/11/08 03:01:28;;;;;;;34.33;21.00;;;;;;;12.29;95.04;94960.63;5136982;28;20499;-84
2021/11/08 03:03:57;;;;;;;35.23;21.70;;;;;;;12.27;95.59;94949.41;5133670;28;20930;-83
2021/11/08 03:06:28;;;;;;;32.33;22.10;;;;;;;12.31;95.90;94945.53;5134070;28;20547;-83
2021/11/08 03:08:57;;;;;;;37.53;21.20;;;;;;;12.33;95.97;94943.59;5133565;28;20437;-83
2021/11/08 03:11:24;;;;;;;37.17;21.87;;;;;;;12.35;95.83;94936.38;5133843;28;20446;-83
2021/11/08 03:13:59;;;;;;;33.77;19.73;;;;;;;12.37;95.01;94938.88;5133514;28;20447;-83
2021/11/08 03:16:34;;;;;;;42.03;20.90;;;;;;;12.32;95.55;94925.31;5133662;28;20432;-83
2021/11/08 03:19:13;;;;;;;30.67;20.60;;;;;;;12.33;94.91;94934.88;5133438;28;20442;-84
2021/11/08 03:21:40;;;;;;;35.30;21.80;;;;;;;12.29;94.81;94921.16;5133506;27;20974;-84
2021/11/08 03:24:07;;;;;;;40.30;21.47;;;;;;;12.21;94.32;94926.31;5133824;28;20523;-84
2021/11/08 03:26:41;;;;;;;48.53;24.03;;;;;;;12.07;95.13;94921.44;5133506;28;20480;-83
2021/11/08 03:29:11;;;;;;;51.83;28.30;;;;;;;12.08;94.18;94928.34;5134451;27;20455;-83
2021/11/08 03:31:40;;;;;;;52.57;34.50;;;;;;;12.07;94.68;94916.19;5137563;27;20528;-83
2021/11/08 03:34:09;;;;;;;52.20;35.80;;;;;;;12.01;94.36;94916.75;5101767;27;20446;-84
2021/11/08 03:36:36;;;;;;;52.57;33.60;;;;;;;11.99;93.88;94918.69;5101271;27;20442;-84
2021/11/08 03:39:05;;;;;;;49.47;32.93;;;;;;;11.95;94.64;94925.19;5137114;27;20457;-83
2021/11/08 03:41:32;;;;;;;45.67;30.87;;;;;;;11.93;94.03;94919.25;5101492;27;20808;-84
2021/11/08 03:44:00;;;;;;;56.63;36.00;;;;;;;11.87;93.88;94925.06;5136930;27;20452;-83
2021/11/08 03:46:29;;;;;;;56.00;34.60;;;;;;;11.82;93.23;94925.44;5136915;27;20572;-83
2021/11/08 03:48:56;;;;;;;52.50;31.87;;;;;;;11.75;92.84;94930.38;5136777;27;20526;-84
2021/11/08 03:51:23;;;;;;;48.63;30.23;;;;;;;11.71;93.20;94925.53;5136983;27;20450;-83
2021/11/08 03:53:50;;;;;;;49.70;28.80;;;;;;;11.63;93.64;94931.47;5137246;27;20545;-83
2021/11/08 03:56:17;;;;;;;45.67;29.13;;;;;;;11.58;92.99;94922.34;5136585;27;20901;-84
2021/11/08 03:58:44;;;;;;;49.93;26.57;;;;;;;11.56;93.26;94926.88;5136455;27;20447;-83
2021/11/08 04:01:11;;;;;;;41.33;27.20;;;;;;;11.38;93.63;94921.47;5136709;27;20446;-83
2021/11/08 04:03:40;;;;;;;40.60;25.50;;;;;;;11.40;95.12;94922.16;5136842;27;20523;-83
2021/11/08 04:06:08;;;;;;;55.00;26.30;;;;;;;11.37;95.41;94911.91;5084301;27;20566;-84
2021/11/08 04:08:35;;;;;;;41.07;26.50;;;;;;;11.35;95.74;94908.59;5100520;27;20446;-83
2021/11/08 04:11:02;;;;;;;50.93;27.50;;;;;;;11.42;95.65;94922.84;5136365;27;20990;-83
2021/11/08 04:13:35;;;;;;;39.93;26.20;;;;;;;11.46;96.27;94924.25;5136293;27;20448;-83
2021/11/08 04:16:03;;;;;;;42.00;25.40;;;;;;;11.47;95.64;94915.38;5136218;27;20453;-83
2021/11/08 04:18:33;;;;;;;44.90;25.83;;;;;;;11.51;96.02;94919.41;5136317;27;20986;-83
2021/11/08 04:21:03;;;;;;;49.00;26.77;;;;;;;11.55;96.68;94926.03;5136252;27;20507;-84
2021/11/08 04:23:30;;;;;;;38.97;27.87;;;;;;;11.53;95.76;94927.97;5136454;27;20445;-84
2021/11/08 04:25:59;;;;;;;49.07;26.50;;;;;;;11.45;97.02;94919.94;5136189;27;20567;-83
2021/11/08 04:28:26;;;;;;;61.70;35.40;;;;;;;11.34;97.92;94933.19;5136298;27;20540;-83
2021/11/08 04:30:53;;;;;;;78.43;40.73;;;;;;;11.36;98.29;94923.38;5135904;27;20482;-83
2021/11/08 04:33:25;;;;;;;68.27;38.40;;;;;;;11.38;99.13;94919.66;5136326;27;20499;-83
2021/11/08 04:38:54;;;;;;;76.47;45.20;;;;;;;11.20;99.52;94928.31;5052817;28;20427;-84
2021/11/08 04:41:29;;;;;;;58.57;32.80;;;;;;;11.25;97.73;94931.34;5052665;28;20439;-83
2021/11/08 04:44:04;;;;;;;48.67;26.60;;;;;;;11.21;97.79;94929.97;5052578;28;20450;-83
2021/11/08 04:47:01;;;;;;;45.37;26.70;;;;;;;11.21;97.45;94919.44;5052228;28;21096;-83
2021/11/08 04:49:45;;;;;;;60.20;29.57;;;;;;;11.28;97.96;94941.63;5052889;28;20854;-83
2021/11/08 04:52:21;;;;;;;52.23;29.73;;;;;;;11.29;97.53;94948.53;5052739;28;20994;-84
2021/11/08 04:54:57;;;;;;;40.90;29.90;;;;;;;11.30;97.63;94943.16;5052310;28;20444;-83
2021/11/08 05:28:04;;;;;;;51.53;31.97;;;;;;;10.99;100.00;94929.22;5055063;28;20440;-83
2021/11/08 05:30:32;;;;;;;59.77;32.90;;;;;;;11.06;100.00;94945.25;5073053;28;20436;-83
2021/11/08 05:32:59;;;;;;;56.20;33.43;;;;;;;11.15;100.00;94936.59;5072296;28;20480;-83
2021/11/08 05:35:26;;;;;;;44.73;31.77;;;;;;;11.24;100.00;94933.16;5071885;28;20445;-84
2021/11/08 05:37:53;;;;;;;51.53;31.60;;;;;;;11.31;100.00;94941.34;5071568;28;20456;-83
2021/11/08 05:40:27;;;;;;;52.13;34.77;;;;;;;11.42;100.00;94941.25;5072071;28;20473;-84
2021/11/08 05:42:56;;;;;;;46.00;30.20;;;;;;;11.46;100.00;94922.44;5071414;28;20515;-84
2021/11/08 05:45:26;;;;;;;46.70;29.40;;;;;;;11.48;100.00;94938.91;5071199;28;20972;-83
2021/11/08 05:47:53;;;;;;;59.27;31.20;;;;;;;11.79;100.00;94933.59;5071812;28;20430;-83
2021/11/08 05:50:21;;;;;;;43.60;29.33;;;;;;;12.09;98.86;94940.53;5071759;28;20646;-83
2021/11/08 05:52:50;;;;;;;46.37;26.97;;;;;;;12.17;96.62;94937.25;5071061;28;20445;-84
2021/11/08 05:55:18;;;;;;;30.90;23.17;;;;;;;12.09;96.73;94945.81;5071515;28;20532;-83
2021/11/08 05:57:59;;;;;;;34.10;26.07;;;;;;;12.21;95.53;94942.09;5071007;28;20528;-83
2021/11/08 06:50:10;;;;;;;61.27;35.00;;;;;;;11.65;97.77;94992.63;5048497;28;20435;-83
2021/11/08 06:52:38;;;;;;;49.37;31.53;;;;;;;11.11;100.00;94975.41;5041091;28;20440;-83
2021/11/08 06:55:07;;;;;;;55.00;34.13;;;;;;;11.29;99.85;94978.25;5041245;28;20456;-83
2021/11/08 06:57:44;;;;;;;51.47;32.93;;;;;;;11.46;99.62;94969.72;5090828;28;20546;-84
2021/11/08 07:00:11;;;;;;;59.70;35.07;;;;;;;10.92;100.00;94964.81;5090978;28;20455;-83
2021/11/08 07:02:38;;;;;;;54.07;32.53;;;;;;;11.34;100.00;94976.06;5091007;28;20527;-84
2021/11/08 07:05:06;;;;;;;59.00;32.80;;;;;;;11.70;100.00;94971.19;5093443;28;20546;-83
2021/11/08 07:07:34;;;;;;;47.47;32.07;;;;;;;11.96;100.00;94963.66;5095169;28;20614;-83
2021/11/08 07:10:01;;;;;;;49.40;28.80;;;;;;;11.67;100.00;94960.94;5094869;28;20515;-83
2021/11/08 07:12:28;;;;;;;51.70;32.00;;;;;;;11.96;100.00;94971.56;5094445;28;20444;-84
2021/11/08 07:14:55;;;;;;;49.67;31.23;;;;;;;12.22;100.00;94969.22;5094489;28;20806;-84
2021/11/08 07:17:22;;;;;;;45.23;30.60;;;;;;;12.31;99.47;94966.59;5094276;28;20829;-83
2021/11/08 07:19:49;;;;;;;48.97;32.10;;;;;;;12.48;98.76;94966.88;5094013;28;20510;-84
2021/11/08 07:22:17;;;;;;;44.03;28.07;;;;;;;12.70;97.98;94964.75;5128737;27;20572;-83
2021/11/08 07:24:46;;;;;;;41.90;27.20;;;;;;;12.88;97.28;94958.75;5137494;27;20475;-83
2021/11/08 07:27:13;;;;;;;44.07;28.20;;;;;;;12.85;97.11;94953.78;5137344;27;20513;-84
2021/11/08 07:29:40;;;;;;;43.17;29.27;;;;;;;13.00;97.28;94947.91;5137294;27;20438;-81
2021/11/08 07:32:08;;;;;;;45.63;27.80;;;;;;;13.10;97.27;94945.25;5137206;27;20530;-84
2021/11/08 07:34:35;;;;;;;49.20;28.80;;;;;;;13.32;96.88;94947.56;5137061;27;20445;-83
2021/11/08 07:37:03;;;;;;;53.50;28.70;;;;;;;13.46;95.77;94938.34;5137575;27;20433;-84
2021/11/08 07:39:30;;;;;;;49.53;29.10;;;;;;;13.64;95.24;94928.66;5136995;27;20467;-84
2021/11/08 07:41:58;;;;;;;50.87;27.33;;;;;;;13.83;94.42;94932.97;5084108;27;20430;-83
2021/11/08 07:44:25;;;;;;;52.77;28.17;;;;;;;14.02;93.98;94945.22;5137133;27;20535;-84
2021/11/08 07:46:52;;;;;;;42.80;27.60;;;;;;;14.16;93.55;94943.84;5136574;27;20937;-84
2021/11/08 07:49:19;;;;;;;48.93;27.30;;;;;;;14.31;92.53;94933.63;5137728;27;20455;-84
2021/11/08 07:51:49;;;;;;;64.67;25.97;;;;;;;14.47;91.77;94942.53;5137080;27;20795;-84
2021/11/08 07:54:16;;;;;;;43.70;25.40;;;;;;;14.62;90.52;94942.81;5136803;27;20537;-84
2021/11/08 07:56:47;;;;;;;40.63;22.23;;;;;;;14.79;89.83;94939.31;5136955;27;20534;-82
2021/11/08 07:59:16;;;;;;;31.90;19.43;;;;;;;14.94;88.89;94926.38;5137087;27;20455;-82
2021/11/08 08:01:47;;;;;;;35.43;18.03;;;;;;;15.04;87.66;94923.63;5136903;27;20809;-82
2021/11/08 08:04:14;;;;;;;33.07;19.60;;;;;;;15.21;87.19;94932.47;5136825;27;20444;-82
2021/11/08 08:06:41;;;;;;;25.83;19.83;;;;;;;15.34;86.49;94923.13;5136716;27;20503;-83
2021/11/08 08:09:08;;;;;;;26.23;19.43;;;;;;;15.49;85.33;94924.16;5100768;27;20523;-82
2021/11/08 08:11:35;;;;;;;27.60;18.20;;;;;;;15.57;83.94;94919.91;5100579;27;20513;-82
2021/11/08 08:14:03;;;;;;;41.07;20.60;;;;;;;15.67;83.29;94912.72;5136798;27;20439;-82
2021/11/08 08:16:31;;;;;;;27.53;18.07;;;;;;;15.85;82.74;94928.44;5135924;27;21160;-83
2021/11/08 08:18:58;;;;;;;32.90;20.37;;;;;;;15.99;82.89;94928.66;5136426;27;20445;-82
2021/11/08 08:21:26;;;;;;;29.30;18.73;;;;;;;16.10;81.57;94925.69;5135777;27;20514;-82
2021/11/08 08:23:55;;;;;;;35.50;19.63;;;;;;;16.22;80.98;94915.66;5136559;27;20457;-82
2021/11/08 08:26:24;;;;;;;37.37;24.43;;;;;;;16.39;82.20;94917.28;5136090;27;20517;-83
2021/11/08 08:28:52;;;;;;;39.07;23.27;;;;;;;16.56;81.24;94925.25;5136673;27;20515;-82
2021/11/08 08:31:19;;;;;;;44.53;23.87;;;;;;;16.74;80.85;94931.22;5136112;27;20494;-82
2021/11/08 08:33:48;;;;;;;38.53;23.30;;;;;;;16.87;79.13;94939.53;5136377;27;20472;-82
2021/11/08 08:36:15;;;;;;;44.00;23.60;;;;;;;16.96;78.94;94940.34;5135826;27;20446;-82
2021/11/08 08:38:43;;;;;;;40.90;24.80;;;;;;;16.99;78.57;94932.03;5136072;27;20474;-83
2021/11/08 08:41:10;;;;;;;34.17;22.37;;;;;;;17.15;78.27;94925.88;5135933;27;20510;-82
2021/11/08 08:43:37;;;;;;;35.37;19.23;;;;;;;17.25;78.21;94922.03;5135766;27;20514;-83
2021/11/08 08:46:04;;;;;;;40.70;21.60;;;;;;;17.47;77.90;94935.56;5100428;27;20453;-82
2021/11/08 08:48:32;;;;;;;45.30;31.47;;;;;;;17.51;78.56;94929.75;5117581;27;20478;-82
2021/11/08 08:51:02;;;;;;;42.37;29.03;;;;;;;17.52;79.48;94920.78;5100451;27;20536;-82
2021/11/08 08:53:29;;;;;;;44.73;29.03;;;;;;;17.56;79.45;94910.66;5136350;27;20444;-82
2021/11/08 08:55:56;;;;;;;40.93;28.43;;;;;;;17.56;79.32;94916.78;5103132;27;20522;-82
2021/11/08 08:58:24;;;;;;;56.40;28.07;;;;;;;17.63;78.64;94916.94;5137789;27;20449;-82
2021/11/08 09:00:52;;;;;;;34.63;24.70;;;;;;;17.72;79.24;94913.28;5135948;27;20445;-83
2021/11/08 09:03:19;;;;;;;37.63;25.80;;;;;;;17.90;78.04;94921.81;5136021;27;20456;-83
2021/11/08 09:05:48;;;;;;;41.80;25.07;;;;;;;18.00;76.34;94918.13;5138085;27;20451;-83
2021/11/08 09:08:17;;;;;;;44.07;23.13;;;;;;;18.00;76.42;94918.97;5137025;27;20476;-83
2021/11/08 09:10:44;;;;;;;35.40;23.10;;;;;;;18.11;76.27;94918.53;5117428;27;20830;-83
2021/11/08 09:13:12;;;;;;;34.47;23.10;;;;;;;18.25;76.02;94924.94;5137542;27;20448;-82
2021/11/08 09:15:40;;;;;;;36.73;23.63;;;;;;;18.43;74.24;94908.69;5138774;27;20449;-83
2021/11/08 09:18:09;;;;;;;35.87;22.50;;;;;;;18.46;73.79;94903.84;5136493;27;20434;-83
2021/11/08 09:20:41;;;;;;;29.97;21.80;;;;;;;18.53;73.26;94907.47;5136892;27;20476;-83
2021/11/08 09:23:08;;;;;;;38.07;21.00;;;;;;;18.60;72.82;94899.59;5138187;27;20543;-83
2021/11/08 09:25:36;;;;;;;31.40;21.20;;;;;;;18.63;72.90;94893.13;5137627;27;20434;-84
2021/11/08 09:28:05;;;;;;;28.07;20.07;;;;;;;18.74;72.27;94906.81;5082611;27;20482;-83
2021/11/08 09:30:35;;;;;;;36.67;20.53;;;;;;;18.77;71.21;94910.94;5136033;27;20460;-82
2021/11/08 09:33:02;;;;;;;35.90;21.00;;;;;;;18.57;71.42;94894.66;5136673;27;20503;-84
2021/11/08 09:35:32;;;;;;;35.17;22.90;;;;;;;18.50;72.13;94891.88;5136737;27;20441;-82
2021/11/08 09:38:01;;;;;;;44.40;25.07;;;;;;;18.41;73.54;94890.28;5137055;27;20545;-82
2021/11/08 09:40:28;;;;;;;39.33;25.13;;;;;;;18.37;73.92;94896.97;5137054;27;20432;-82
2021/11/08 09:42:58;;;;;;;36.10;22.63;;;;;;;18.48;74.85;94885.91;5136766;27;20509;-82
2021/11/08 09:45:25;;;;;;;42.03;26.53;;;;;;;18.58;73.96;94894.47;5137441;27;20516;-82
2021/11/08 09:47:53;;;;;;;33.90;24.27;;;;;;;18.65;74.16;94881.31;5136840;27;20488;-81
2021/11/08 09:50:25;;;;;;;39.43;23.60;;;;;;;18.55;72.55;94878.06;5136291;27;20445;-82
2021/11/08 09:52:53;;;;;;;32.07;22.50;;;;;;;18.64;73.61;94866.38;5136424;27;20444;-83
2021/11/08 09:55:22;;;;;;;31.53;21.90;;;;;;;18.69;72.52;94873.81;5136667;27;20457;-82
2021/11/08 09:57:50;;;;;;;32.87;23.17;;;;;;;18.69;72.21;94858.69;5135930;27;20441;-82
2021/11/08 10:00:23;;;;;;;39.63;22.40;;;;;;;18.88;72.93;94858.16;5136875;27;20529;-83
2021/11/08 10:02:54;;;;;;;32.60;20.87;;;;;;;19.03;72.33;94860.00;5139534;27;20978;-83
2021/11/08 10:05:24;;;;;;;28.47;19.47;;;;;;;19.17;70.98;94869.84;5143858;27;20442;-85
2021/11/08 10:07:52;;;;;;;35.03;21.43;;;;;;;19.29;70.93;94856.91;5136127;27;20992;-83
2021/11/08 10:10:19;;;;;;;38.03;20.97;;;;;;;19.39;69.91;94844.97;5136128;27;20899;-83
2021/11/08 10:12:49;;;;;;;29.07;20.10;;;;;;;19.49;69.52;94856.16;5136606;27;20437;-83
2021/11/08 10:15:20;;;;;;;26.53;19.33;;;;;;;19.54;70.31;94852.13;5135809;27;20499;-83
2021/11/08 10:17:47;;;;;;;27.93;20.90;;;;;;;19.53;69.81;94846.00;5136607;27;20452;-83
2021/11/08 10:20:29;;;;;;;30.50;20.27;;;;;;;19.45;69.07;94849.56;5136693;27;20435;-83
2021/11/08 10:22:56;;;;;;;30.07;19.70;;;;;;;19.50;67.96;94849.00;5135534;27;20840;-83
2021/11/08 10:25:25;;;;;;;41.87;18.40;;;;;;;19.56;67.45;94845.63;5135622;27;20441;-82
2021/11/08 10:27:52;;;;;;;30.33;17.47;;;;;;;19.64;67.02;94840.16;5136190;28;20478;-83
2021/11/08 10:30:30;;;;;;;29.40;18.67;;;;;;;19.73;67.82;94832.91;5138355;28;20475;-82
2021/11/08 10:33:08;;;;;;;28.53;15.23;;;;;;;19.94;67.41;94826.78;5136772;28;20456;-82
2021/11/08 10:35:37;;;;;;;27.53;17.30;;;;;;;20.07;66.58;94829.59;5137070;28;20437;-82
2021/11/08 10:38:09;;;;;;;23.30;16.70;;;;;;;20.14;66.26;94819.81;5138238;27;20450;-81
2021/11/08 10:40:43;;;;;;;26.83;17.87;;;;;;;20.23;67.03;94823.16;5141151;27;20529;-82
2021/11/08 10:43:11;;;;;;;27.33;16.37;;;;;;;20.21;66.06;94823.38;5038599;27;20439;-83
2021/11/08 10:45:48;;;;;;;24.07;13.30;;;;;;;20.14;64.99;94811.81;5141203;27;20745;-83
2021/11/08 10:48:20;;;;;;;23.47;15.07;;;;;;;20.13;65.28;94812.84;5140262;27;20991;-83
2021/11/08 10:50:49;;;;;;;25.57;15.77;;;;;;;20.13;64.43;94815.50;5139730;27;20438;-84
2021/11/08 10:53:16;;;;;;;29.70;16.80;;;;;;;20.15;64.43;94802.81;5138756;27;20441;-83
2021/11/08 10:55:43;;;;;;;30.13;17.43;;;;;;;20.16;64.02;94800.97;5139978;27;21014;-82
2021/11/08 10:58:13;;;;;;;26.17;14.50;;;;;;;20.29;64.75;94793.94;5139183;27;20445;-82
2021/11/08 11:00:54;;;;;;;22.50;14.47;;;;;;;20.41;63.16;94810.25;5139071;27;20521;-82
2021/11/08 11:03:23;;;;;;;18.07;14.17;;;;;;;20.44;62.50;94801.88;5139093;27;20441;-82
2021/11/08 11:05:59;;;;;;;22.70;14.17;;;;;;;20.50;62.65;94808.28;5102837;27;20935;-82
2021/11/08 11:08:26;;;;;;;27.17;14.57;;;;;;;20.54;61.55;94812.22;5138727;27;20821;-82
2021/11/08 11:10:57;;;;;;;23.37;14.90;;;;;;;20.61;61.95;94810.44;5139032;27;20816;-82
2021/11/08 11:13:25;;;;;;;24.77;16.60;;;;;;;20.68;62.73;94808.63;5138493;27;20929;-82
2021/11/08 11:16:00;;;;;;;35.83;17.07;;;;;;;20.71;62.84;94803.72;5137144;27;20937;-82
2021/11/08 11:18:28;;;;;;;24.93;16.07;;;;;;;20.75;63.68;94814.00;5137592;27;20944;-82
2021/11/08 11:20:55;;;;;;;28.00;17.90;;;;;;;20.71;62.95;94809.06;5137257;27;20442;-83
2021/11/08 11:23:26;;;;;;;27.50;16.53;;;;;;;20.75;63.28;94806.00;5136834;27;20878;-82
2021/11/08 11:25:59;;;;;;;34.23;20.63;;;;;;;20.70;63.57;94801.25;5137367;27;20903;-82
2021/11/08 11:28:33;;;;;;;38.13;18.60;;;;;;;20.70;63.25;94806.59;5137032;27;20482;-83
2021/11/08 11:31:10;;;;;;;36.10;20.10;;;;;;;20.73;64.19;94803.53;5136854;27;20528;-83
2021/11/08 11:33:37;;;;;;;38.00;22.83;;;;;;;20.61;64.03;94803.25;5119727;27;20441;-83
2021/11/08 11:36:06;;;;;;;40.07;24.10;;;;;;;20.48;64.91;94805.81;5139938;27;20533;-82
2021/11/08 11:38:37;;;;;;;40.60;22.27;;;;;;;20.50;65.21;94803.75;5138303;27;20532;-82
2021/11/08 11:41:11;;;;;;;47.33;24.90;;;;;;;20.49;65.28;94810.13;5138108;27;20449;-82
2021/11/08 11:43:41;;;;;;;39.67;26.10;;;;;;;20.43;66.10;94800.22;5137566;27;20712;-82
2021/11/08 11:46:17;;;;;;;54.03;27.73;;;;;;;20.32;66.97;94798.88;5138085;27;20447;-83
2021/11/08 11:48:45;;;;;;;50.90;27.50;;;;;;;20.29;67.71;94817.94;5138221;27;20484;-82
2021/11/08 11:51:14;;;;;;;37.67;22.27;;;;;;;20.30;68.16;94816.09;5138368;27;20431;-82
2021/11/08 11:53:42;;;;;;;50.90;27.30;;;;;;;20.15;68.73;94815.31;5138092;27;20806;-83
2021/11/08 11:56:10;;;;;;;51.70;26.77;;;;;;;20.00;69.14;94815.38;5137075;27;20525;-82
2021/11/08 11:58:38;;;;;;;48.30;27.70;;;;;;;19.96;69.05;94812.28;5136303;27;20449;-83
2021/11/08 12:01:07;;;;;;;58.63;29.50;;;;;;;19.97;70.00;94807.78;5136613;27;20848;-82
2021/11/08 12:03:36;;;;;;;56.90;28.67;;;;;;;19.90;69.70;94809.53;5101839;27;20441;-83
2021/11/08 12:06:04;;;;;;;71.17;31.53;;;;;;;19.92;69.67;94804.84;5136025;27;20498;-83
2021/11/08 12:08:34;;;;;;;52.70;32.73;;;;;;;19.90;69.05;94806.88;5137511;27;20486;-83
2021/11/08 12:11:02;;;;;;;56.33;29.87;;;;;;;19.82;68.85;94801.66;5117086;27;20433;-83
2021/11/08 12:13:30;;;;;;;51.07;30.90;;;;;;;19.83;68.80;94800.66;5136020;27;20443;-83
2021/11/08 12:15:59;;;;;;;55.63;32.20;;;;;;;19.95;69.32;94796.47;5135874;27;20517;-83
2021/11/08 12:18:26;;;;;;;55.23;29.23;;;;;;;20.03;68.88;94799.84;5135800;27;20448;-83
2021/11/08 12:20:57;;;;;;;54.37;31.03;;;;;;;20.01;68.05;94811.72;5135980;27;20438;-82
2021/11/08 12:23:27;;;;;;;52.93;29.70;;;;;;;20.14;68.30;94806.50;5135839;27;20498;-83
2021/11/08 12:25:54;;;;;;;51.87;31.10;;;;;;;20.23;68.63;94805.34;5135623;27;20901;-83
2021/11/08 12:28:23;;;;;;;50.17;28.80;;;;;;;20.31;67.67;94813.22;5135744;27;20477;-83
2021/11/08 12:30:52;;;;;;;53.73;30.40;;;;;;;20.32;67.63;94800.72;5099745;27;20438;-83
2021/11/08 12:33:27;;;;;;;57.13;31.53;;;;;;;20.29;67.90;94803.78;5135937;27;20776;-83
2021/11/08 12:35:58;;;;;;;52.50;31.77;;;;;;;20.25;68.60;94807.84;5135248;27;21041;-83
2021/11/08 12:38:28;;;;;;;51.37;32.10;;;;;;;20.26;67.83;94806.84;5116301;27;20430;-83
2021/11/08 12:41:09;;;;;;;59.93;35.83;;;;;;;20.28;68.17;94813.63;5135141;27;20448;-83
2021/11/08 12:43:38;;;;;;;69.27;36.13;;;;;;;20.19;68.63;94809.41;5135727;27;20437;-83
2021/11/08 12:46:13;;;;;;;66.67;32.83;;;;;;;20.19;69.28;94808.59;5135144;27;20449;-83
2021/11/08 12:48:41;;;;;;;48.83;30.10;;;;;;;20.11;69.20;94796.22;5099197;27;20474;-83